Time;durP1;ratioP1;P1;durP2;ratioP2;P2;SDS_P1;SDS_P2;PMS_P1;PMS_P2;Temp;Humidity;BMP_temperature;BMP_pressure;BME280_temperature;BME280_humidity;BME280_pressure;Samples;Min_cycle;Max_cycle;Signal;HPM_P1;HPM_P2
2023/07/02 00:00:46;;;;;;;0.95;0.90;;;;;;;20.99;77.46;98656.16;5118021;28;20040;-69
2023/07/02 00:03:16;;;;;;;1.23;0.85;;;;;;;20.97;77.80;98657.16;5117657;28;20044;-65
2023/07/02 00:05:45;;;;;;;0.80;0.80;;;;;;;20.90;77.93;98651.47;5117601;28;20043;-65
2023/07/02 00:08:15;;;;;;;1.27;1.15;;;;;;;20.88;78.21;98652.50;5117940;28;20044;-69
2023/07/02 00:10:44;;;;;;;3.33;1.13;;;;;;;20.82;78.55;98648.53;5117807;28;20542;-69
2023/07/02 00:13:14;;;;;;;0.75;0.75;;;;;;;20.79;78.75;98653.88;5117559;28;20136;-65
2023/07/02 00:15:43;;;;;;;2.28;1.45;;;;;;;20.72;79.00;98652.56;5117359;28;20054;-69
2023/07/02 00:18:16;;;;;;;0.82;0.82;;;;;;;20.65;79.30;98659.88;5117957;28;20047;-69
2023/07/02 00:20:46;;;;;;;0.90;0.90;;;;;;;20.63;79.32;98653.13;5117644;28;20044;-65
2023/07/02 00:23:16;;;;;;;;;;;;;;;20.60;79.47;98650.69;5117813;28;20055;-69
2023/07/02 00:25:45;;;;;;;1.42;1.33;;;;;;;20.55;79.52;98650.13;5117561;28;19926;-65
2023/07/02 00:28:14;;;;;;;5.00;0.95;;;;;;;20.48;79.70;98648.81;5117293;28;20084;-65
2023/07/02 00:30:43;;;;;;;2.20;1.40;;;;;;;20.45;79.95;98654.16;5117469;28;20035;-65
2023/07/02 00:33:12;;;;;;;1.55;1.38;;;;;;;20.43;79.97;98658.59;5115950;28;20040;-66
2023/07/02 00:35:41;;;;;;;0.63;0.63;;;;;;;20.43;80.21;98658.59;5115800;28;20520;-66
2023/07/02 00:38:11;;;;;;;2.22;1.75;;;;;;;20.48;80.42;98656.59;5117116;28;20052;-66
2023/07/02 00:40:41;;;;;;;3.15;1.45;;;;;;;20.51;80.37;98653.81;5117287;28;20050;-69
2023/07/02 00:43:12;;;;;;;2.00;1.55;;;;;;;20.48;80.86;98652.25;5116996;28;20086;-69
2023/07/02 00:45:41;;;;;;;1.63;1.15;;;;;;;20.46;80.93;98650.66;5115888;28;20044;-66
2023/07/02 00:48:10;;;;;;;1.48;1.00;;;;;;;20.43;81.07;98651.66;5117132;28;20069;-67
2023/07/02 00:50:40;;;;;;;1.67;1.08;;;;;;;20.47;81.04;98654.91;5116997;28;20040;-66
2023/07/02 00:53:11;;;;;;;4.85;2.53;;;;;;;20.49;81.04;98655.66;5117137;28;20544;-67
2023/07/02 00:55:41;;;;;;;1.02;0.93;;;;;;;20.45;80.93;98651.56;5117215;27;20083;-66
2023/07/02 00:58:10;;;;;;;2.05;1.85;;;;;;;20.43;80.97;98656.00;5115065;28;20048;-67
2023/07/02 01:00:40;;;;;;;1.10;1.00;;;;;;;20.43;80.85;98653.41;5116978;28;20453;-67
2023/07/02 01:03:12;;;;;;;1.67;1.27;;;;;;;20.36;80.20;98654.69;5117140;28;20162;-66
2023/07/02 01:05:41;;;;;;;2.53;1.00;;;;;;;20.36;79.06;98652.09;5116496;28;20048;-65
2023/07/02 01:08:11;;;;;;;10.95;2.85;;;;;;;20.34;78.72;98657.38;5115244;28;20044;-67
2023/07/02 01:10:43;;;;;;;0.77;0.70;;;;;;;20.36;78.19;98660.72;5116338;28;20043;-65
2023/07/02 01:13:17;;;;;;;1.95;1.10;;;;;;;20.37;77.41;98661.56;5117210;28;20089;-69
2023/07/02 01:15:46;;;;;;;1.30;1.13;;;;;;;20.31;77.12;98662.72;5116536;28;20569;-65
2023/07/02 01:18:16;;;;;;;1.17;1.08;;;;;;;20.26;77.15;98653.53;5116241;28;20067;-68
2023/07/02 01:20:48;;;;;;;1.65;0.95;;;;;;;20.21;77.15;98661.53;5116179;28;20047;-69
2023/07/02 01:23:17;;;;;;;19.17;2.03;;;;;;;20.18;77.09;98651.34;5115440;28;20097;-69
2023/07/02 01:25:47;;;;;;;0.90;0.90;;;;;;;20.17;77.21;98659.19;5116127;27;20067;-68
2023/07/02 01:28:16;;;;;;;0.88;0.80;;;;;;;20.24;76.82;98660.56;5115484;28;20044;-66
2023/07/02 01:30:45;;;;;;;;;;;;;;;20.22;77.15;98658.06;5115761;28;20054;-65
2023/07/02 01:33:15;;;;;;;0.73;0.73;;;;;;;20.24;77.39;98665.75;5116047;28;19963;-67
2023/07/02 01:35:46;;;;;;;1.20;1.10;;;;;;;20.19;77.74;98670.31;5115919;28;20093;-69
2023/07/02 01:38:15;;;;;;;1.58;1.20;;;;;;;20.18;78.11;98656.50;5114598;28;20480;-67
2023/07/02 01:40:44;;;;;;;2.07;0.87;;;;;;;20.20;78.32;98669.41;5114625;28;20039;-65
2023/07/02 01:43:13;;;;;;;0.68;0.68;;;;;;;20.14;78.78;98659.38;5115767;28;20048;-67
2023/07/02 01:45:43;;;;;;;2.15;1.00;;;;;;;20.12;79.25;98656.88;5115790;28;20090;-68
2023/07/02 01:48:12;;;;;;;1.45;1.23;;;;;;;20.12;79.38;98661.22;5131521;27;20043;-67
2023/07/02 01:50:42;;;;;;;0.90;0.80;;;;;;;20.09;79.68;98657.03;5115825;28;20044;-64
2023/07/02 01:53:12;;;;;;;2.17;1.52;;;;;;;20.12;79.65;98662.06;5114451;28;20113;-65
2023/07/02 01:55:41;;;;;;;0.68;0.68;;;;;;;20.15;79.81;98661.03;5115594;28;20063;-69
2023/07/02 01:58:10;;;;;;;1.00;0.85;;;;;;;20.19;79.90;98654.75;5114242;28;20067;-67
2023/07/02 02:00:39;;;;;;;2.25;1.88;;;;;;;20.26;80.25;98658.72;5114226;28;20039;-65
2023/07/02 02:03:08;;;;;;;1.70;1.48;;;;;;;20.34;80.78;98659.13;5114176;28;20040;-65
2023/07/02 02:05:37;;;;;;;1.42;1.17;;;;;;;20.36;81.26;98659.88;5115341;28;20039;-65
2023/07/02 02:08:06;;;;;;;2.60;2.28;;;;;;;20.36;81.96;98657.28;5115986;28;20088;-67
2023/07/02 02:10:36;;;;;;;1.48;1.38;;;;;;;20.37;82.22;98656.38;5113452;28;20036;-69
2023/07/02 02:13:06;;;;;;;1.20;1.10;;;;;;;20.37;82.47;98661.56;5114058;28;20043;-69
2023/07/02 02:15:34;;;;;;;2.17;1.98;;;;;;;20.33;83.04;98652.25;5115427;28;20127;-65
2023/07/02 02:18:04;;;;;;;2.15;1.75;;;;;;;20.28;83.99;98664.63;5115408;28;20067;-67
2023/07/02 02:20:33;;;;;;;0.93;0.90;;;;;;;20.32;84.24;98658.38;5113914;28;20048;-68
2023/07/02 02:23:02;;;;;;;2.50;2.20;;;;;;;20.31;84.57;98664.47;5115242;28;20048;-65
2023/07/02 02:25:32;;;;;;;6.80;2.58;;;;;;;20.32;85.09;98669.59;5115274;28;20070;-66
2023/07/02 02:28:05;;;;;;;1.73;1.23;;;;;;;20.40;85.56;98672.56;5114960;28;20082;-68
2023/07/02 02:30:37;;;;;;;3.30;2.08;;;;;;;20.42;85.84;98669.91;5113648;28;20057;-68
2023/07/02 02:33:07;;;;;;;2.55;2.03;;;;;;;20.46;85.95;98671.38;5115034;28;20058;-65
2023/07/02 02:35:36;;;;;;;2.30;2.10;;;;;;;20.48;86.20;98674.72;5115063;28;20110;-69
2023/07/02 02:38:05;;;;;;;7.88;2.22;;;;;;;20.50;86.29;98675.47;5113725;28;20036;-67
2023/07/02 02:40:34;;;;;;;1.85;1.30;;;;;;;20.51;86.41;98669.38;5113502;28;20048;-70
2023/07/02 02:43:08;;;;;;;1.48;1.38;;;;;;;20.51;86.54;98669.38;5114712;28;20047;-70
2023/07/02 02:45:39;;;;;;;3.15;2.60;;;;;;;20.50;87.15;98678.91;5113750;28;20059;-68
2023/07/02 02:48:09;;;;;;;2.55;1.85;;;;;;;20.48;86.70;98679.91;5114756;28;20054;-66
2023/07/02 02:50:38;;;;;;;1.98;1.67;;;;;;;20.48;86.80;98677.31;5114314;27;20040;-69
2023/07/02 02:53:07;;;;;;;1.63;1.50;;;;;;;20.46;86.88;98676.56;5113380;28;20138;-67
2023/07/02 02:55:37;;;;;;;3.60;2.88;;;;;;;20.45;87.06;98685.25;5113628;28;20126;-67
2023/07/02 02:58:06;;;;;;;3.38;2.17;;;;;;;20.48;87.13;98680.75;5114564;28;20050;-67
2023/07/02 03:00:36;;;;;;;3.75;2.63;;;;;;;20.45;87.11;98680.06;5114898;28;20047;-65
2023/07/02 03:03:05;;;;;;;2.85;1.35;;;;;;;20.38;87.13;98683.94;5113428;28;20489;-70
2023/07/02 03:05:38;;;;;;;1.15;1.05;;;;;;;20.29;87.44;98680.13;5114299;28;20044;-66
2023/07/02 03:08:07;;;;;;;3.67;2.53;;;;;;;20.23;87.52;98679.63;5113049;28;20047;-66
2023/07/02 03:10:36;;;;;;;2.25;1.88;;;;;;;20.19;87.56;98684.13;5114271;28;20542;-70
2023/07/02 03:13:04;;;;;;;4.32;2.90;;;;;;;20.14;87.58;98680.94;5114425;28;20067;-67
2023/07/02 03:15:33;;;;;;;3.05;2.67;;;;;;;20.02;87.74;98674.69;5113002;28;20118;-68
2023/07/02 03:18:04;;;;;;;2.15;1.42;;;;;;;19.94;87.72;98674.25;5113192;28;20126;-67
2023/07/02 03:20:33;;;;;;;3.13;2.70;;;;;;;19.91;87.99;98676.19;5114010;28;20570;-66
2023/07/02 03:23:02;;;;;;;2.03;1.73;;;;;;;19.91;88.06;98677.03;5114058;28;20063;-67
2023/07/02 03:25:31;;;;;;;5.88;3.08;;;;;;;19.91;88.18;98671.84;5114044;28;20036;-70
2023/07/02 03:27:59;;;;;;;1.77;1.40;;;;;;;19.87;88.23;98678.09;5113989;28;20044;-70
2023/07/02 03:30:28;;;;;;;1.88;1.67;;;;;;;19.85;88.27;98669.59;5114047;28;20067;-70
2023/07/02 03:32:58;;;;;;;2.03;1.75;;;;;;;19.89;88.58;98670.25;5113822;28;20036;-66
2023/07/02 03:35:29;;;;;;;2.17;1.67;;;;;;;19.92;88.81;98670.91;5113953;28;20066;-70
2023/07/02 03:37:58;;;;;;;2.20;1.70;;;;;;;19.96;88.99;98672.41;5113908;28;20075;-65
2023/07/02 03:40:27;;;;;;;3.80;2.28;;;;;;;20.02;89.23;98672.09;5113830;28;20051;-65
2023/07/02 03:42:56;;;;;;;2.78;2.58;;;;;;;20.15;89.34;98676.59;5113796;28;20057;-67
2023/07/02 03:45:25;;;;;;;4.70;3.15;;;;;;;20.23;89.17;98677.03;5113872;28;20035;-65
2023/07/02 03:47:54;;;;;;;3.25;2.42;;;;;;;20.28;89.11;98677.59;5114115;28;20039;-65
2023/07/02 03:50:23;;;;;;;2.97;1.75;;;;;;;20.37;88.98;98682.28;5114013;28;20047;-65
2023/07/02 03:52:53;;;;;;;1.30;1.20;;;;;;;20.46;88.90;98686.94;5113623;28;20032;-69
2023/07/02 03:55:22;;;;;;;15.70;2.50;;;;;;;20.49;88.53;98681.59;5113790;28;20055;-70
2023/07/02 03:57:51;;;;;;;3.47;2.10;;;;;;;20.55;88.50;98683.81;5113683;28;20074;-68
2023/07/02 04:00:20;;;;;;;1.90;1.65;;;;;;;20.66;88.50;98684.03;5113975;28;20070;-70
2023/07/02 04:02:48;;;;;;;2.40;1.45;;;;;;;20.73;88.08;98691.38;5113978;28;20040;-67
2023/07/02 04:05:18;;;;;;;4.13;2.55;;;;;;;20.72;87.87;98688.88;5113921;28;20174;-68
2023/07/02 04:07:46;;;;;;;9.57;2.60;;;;;;;20.68;87.54;98687.41;5113706;28;20054;-70
2023/07/02 04:10:17;;;;;;;12.93;3.92;;;;;;;20.63;87.57;98692.00;5113587;28;20493;-68
2023/07/02 04:12:46;;;;;;;5.78;2.38;;;;;;;20.64;87.60;98681.53;5113774;28;20051;-65
2023/07/02 04:15:14;;;;;;;1.90;1.67;;;;;;;20.62;87.61;98685.16;5113462;28;20052;-67
2023/07/02 04:17:43;;;;;;;2.50;2.28;;;;;;;20.62;87.44;98692.94;5113868;28;20272;-70
2023/07/02 04:20:13;;;;;;;2.63;1.80;;;;;;;20.69;87.42;98687.31;5113847;28;20052;-70
2023/07/02 04:22:42;;;;;;;22.83;2.58;;;;;;;20.73;87.15;98685.38;5113498;28;20040;-65
2023/07/02 04:25:11;;;;;;;4.45;2.95;;;;;;;20.80;86.88;98697.06;5113740;28;20040;-68
2023/07/02 04:28:01;;;;;;;2.67;2.33;;;;;;;20.86;86.97;98695.84;5113446;28;20090;-68
2023/07/02 04:30:30;;;;;;;4.15;2.97;;;;;;;20.87;86.71;98700.97;5113466;28;20130;-70
2023/07/02 04:32:59;;;;;;;2.83;2.53;;;;;;;20.87;86.42;98706.16;5113417;28;20040;-67
2023/07/02 04:35:28;;;;;;;4.18;2.38;;;;;;;20.86;86.35;98704.47;5117111;28;20070;-67
2023/07/02 04:37:58;;;;;;;2.15;1.63;;;;;;;20.87;86.48;98698.38;5117657;28;20126;-65
2023/07/02 04:40:27;;;;;;;4.85;3.22;;;;;;;20.88;86.45;98700.03;5117319;28;20162;-66
2023/07/02 04:42:58;;;;;;;3.53;2.30;;;;;;;20.87;86.44;98703.56;5117045;28;20130;-67
2023/07/02 04:45:35;;;;;;;2.33;2.13;;;;;;;20.87;86.42;98702.72;5117506;28;20443;-65
2023/07/02 04:48:04;;;;;;;4.50;2.45;;;;;;;20.86;86.17;98701.88;5116943;28;20118;-68
2023/07/02 04:50:33;;;;;;;1.90;1.30;;;;;;;20.93;85.75;98707.53;5116892;28;20083;-68
2023/07/02 04:53:02;;;;;;;1.60;1.48;;;;;;;20.96;85.29;98713.41;5116680;28;20039;-65
2023/07/02 04:55:31;;;;;;;1.27;1.17;;;;;;;21.06;84.92;98708.53;5116701;28;20070;-68
2023/07/02 04:58:00;;;;;;;1.73;1.27;;;;;;;21.25;84.44;98715.16;5116651;28;20066;-66
2023/07/02 05:00:31;;;;;;;2.67;1.65;;;;;;;21.46;83.74;98717.38;5116596;28;20288;-69
2023/07/02 05:03:00;;;;;;;1.88;1.50;;;;;;;21.52;83.27;98717.03;5116936;28;20047;-69
2023/07/02 05:05:29;;;;;;;3.10;2.67;;;;;;;21.62;82.64;98713.75;5116795;28;20118;-67
2023/07/02 05:07:58;;;;;;;2.38;1.77;;;;;;;21.72;82.39;98714.03;5116525;28;20135;-70
2023/07/02 05:10:27;;;;;;;2.50;2.13;;;;;;;21.76;82.00;98716.34;5116780;28;20389;-65
2023/07/02 05:12:56;;;;;;;2.65;2.08;;;;;;;21.75;81.51;98716.44;5116605;28;20044;-69
2023/07/02 05:15:26;;;;;;;2.17;1.98;;;;;;;21.74;80.99;98718.22;5117157;28;20383;-68
2023/07/02 05:17:56;;;;;;;3.75;2.78;;;;;;;21.72;80.56;98714.03;5116532;28;20040;-66
2023/07/02 05:20:25;;;;;;;2.17;1.42;;;;;;;21.74;80.58;98717.41;5116587;28;20500;-66
2023/07/02 05:22:54;;;;;;;1.73;1.55;;;;;;;21.86;80.57;98721.84;5116161;28;20135;-65
2023/07/02 05:25:23;;;;;;;6.03;1.77;;;;;;;21.97;80.07;98720.28;5116130;28;20048;-69
2023/07/02 05:27:52;;;;;;;1.60;1.17;;;;;;;22.05;79.96;98721.56;5115952;28;20036;-69
2023/07/02 05:30:21;;;;;;;2.38;2.17;;;;;;;22.10;79.61;98719.50;5116389;28;20039;-65
2023/07/02 05:32:50;;;;;;;3.72;1.17;;;;;;;22.16;79.49;98719.94;5116262;28;20042;-69
2023/07/02 05:35:20;;;;;;;2.35;2.10;;;;;;;22.16;78.73;98725.16;5115903;28;20051;-69
2023/07/02 05:37:49;;;;;;;1.42;1.30;;;;;;;22.18;78.21;98728.47;5116229;28;20131;-68
2023/07/02 05:40:18;;;;;;;2.60;1.45;;;;;;;22.22;77.78;98734.34;5115902;28;20062;-66
2023/07/02 05:42:47;;;;;;;2.03;1.45;;;;;;;22.29;77.00;98727.81;5116079;28;20427;-65
2023/07/02 05:45:16;;;;;;;5.40;2.53;;;;;;;22.37;76.58;98728.97;5116061;28;20499;-65
2023/07/02 05:47:45;;;;;;;2.97;2.00;;;;;;;22.47;75.99;98735.25;5115851;28;20073;-67
2023/07/02 05:50:14;;;;;;;1.77;1.67;;;;;;;22.57;75.52;98735.50;5115596;28;20547;-65
2023/07/02 05:52:44;;;;;;;1.48;1.27;;;;;;;22.71;74.97;98742.44;5115941;28;20031;-69
2023/07/02 05:55:13;;;;;;;10.05;1.58;;;;;;;22.84;74.34;98738.13;5115940;28;20454;-66
2023/07/02 05:57:42;;;;;;;1.23;1.13;;;;;;;22.91;73.53;98739.38;5115342;28;20046;-68
2023/07/02 06:00:12;;;;;;;3.70;1.83;;;;;;;22.98;73.38;98735.44;5115480;28;20562;-67
2023/07/02 06:02:41;;;;;;;1.23;1.00;;;;;;;23.14;73.24;98730.88;5115842;28;20069;-66
2023/07/02 06:05:10;;;;;;;1.13;1.02;;;;;;;23.32;72.76;98737.47;5115393;28;20415;-67
2023/07/02 06:07:39;;;;;;;;;;;;;;;23.45;72.58;98735.72;5115957;28;20044;-68
2023/07/02 06:10:10;;;;;;;1.07;0.93;;;;;;;23.50;72.73;98728.41;5115621;28;19919;-68
2023/07/02 06:12:39;;;;;;;1.13;1.00;;;;;;;23.50;72.58;98736.22;5115205;28;20041;-65
2023/07/02 06:15:09;;;;;;;1.45;1.33;;;;;;;23.27;71.59;98736.94;5115101;28;20039;-67
2023/07/02 06:17:38;;;;;;;1.70;1.40;;;;;;;23.17;71.30;98741.94;5115443;28;20135;-67
2023/07/02 06:20:08;;;;;;;2.22;1.90;;;;;;;23.16;71.25;98744.63;5115061;28;20130;-66
2023/07/02 06:22:37;;;;;;;1.05;0.95;;;;;;;23.15;71.18;98753.38;5115037;28;20046;-65
2023/07/02 06:25:07;;;;;;;3.58;1.85;;;;;;;23.17;71.00;98751.50;5115301;28;20039;-66
2023/07/02 06:27:37;;;;;;;3.15;1.73;;;;;;;23.25;70.44;98749.22;5114699;28;20043;-65
2023/07/02 06:30:07;;;;;;;1.35;1.25;;;;;;;23.45;70.12;98756.56;5114942;28;20112;-66
2023/07/02 06:32:36;;;;;;;0.93;0.63;;;;;;;23.63;68.21;98760.53;5114954;28;20055;-66
2023/07/02 06:35:06;;;;;;;0.70;0.70;;;;;;;23.81;66.62;98756.63;5114894;28;20455;-65
2023/07/02 06:37:35;;;;;;;1.15;1.05;;;;;;;24.07;64.86;98748.81;5114685;28;20057;-67
2023/07/02 06:40:05;;;;;;;0.77;0.77;;;;;;;24.25;63.51;98753.56;5115019;28;20050;-65
2023/07/02 06:42:35;;;;;;;0.40;0.40;;;;;;;24.42;62.38;98757.56;5114774;28;20043;-66
2023/07/02 06:45:07;;;;;;;0.77;0.57;;;;;;;24.57;61.16;98757.28;5114628;28;20054;-67
2023/07/02 06:47:36;;;;;;;0.73;0.73;;;;;;;24.79;60.57;98761.78;5114850;28;20134;-67
2023/07/02 06:50:06;;;;;;;0.60;0.60;;;;;;;24.99;59.47;98755.94;5114470;28;20050;-65
2023/07/02 06:52:35;;;;;;;0.40;0.40;;;;;;;25.10;58.37;98753.34;5114404;28;20047;-68
2023/07/02 06:55:04;;;;;;;0.55;0.50;;;;;;;25.23;57.55;98754.13;5114472;28;20263;-66
2023/07/02 06:57:33;;;;;;;0.52;0.52;;;;;;;25.18;57.92;98753.63;5113890;28;20385;-68
2023/07/02 07:00:03;;;;;;;0.40;0.40;;;;;;;25.14;58.23;98760.03;5114640;28;20126;-67
2023/07/02 07:02:34;;;;;;;0.50;0.50;;;;;;;25.00;58.93;98760.22;5114385;28;20058;-66
2023/07/02 07:05:03;;;;;;;1.65;0.75;;;;;;;24.96;58.72;98758.78;5114570;28;20044;-66
2023/07/02 07:07:37;;;;;;;0.60;0.60;;;;;;;24.91;58.55;98760.91;5114717;28;20043;-67
2023/07/02 07:10:10;;;;;;;5.97;0.70;;;;;;;24.69;58.51;98763.38;5113788;28;20570;-66
2023/07/02 07:12:39;;;;;;;0.57;0.57;;;;;;;24.61;58.31;98760.50;5114398;28;20039;-66
2023/07/02 07:15:10;;;;;;;0.60;0.60;;;;;;;24.64;58.21;98771.53;5114012;28;20040;-68
2023/07/02 07:17:40;;;;;;;0.60;0.57;;;;;;;24.78;58.15;98773.19;5114545;28;20062;-66
2023/07/02 07:20:11;;;;;;;1.20;1.10;;;;;;;25.01;57.48;98774.09;5114789;28;20140;-67
2023/07/02 07:22:39;;;;;;;0.65;0.65;;;;;;;25.15;57.97;98781.75;5113969;28;20047;-67
2023/07/02 07:25:09;;;;;;;0.60;0.60;;;;;;;25.12;57.69;98788.03;5114069;28;20100;-67
2023/07/02 07:27:39;;;;;;;1.15;0.98;;;;;;;25.06;57.67;98785.88;5114086;28;20048;-67
2023/07/02 07:30:08;;;;;;;0.70;0.65;;;;;;;24.93;57.03;98787.72;5114285;28;20122;-67
2023/07/02 07:32:37;;;;;;;;;;;;;;;24.93;57.40;98782.50;5114610;28;20059;-67
2023/07/02 07:35:08;;;;;;;1.25;1.10;;;;;;;24.81;57.83;98791.22;5113806;28;20400;-67
2023/07/02 07:37:37;;;;;;;1.33;1.05;;;;;;;24.72;58.21;98789.25;5113976;28;20481;-67
2023/07/02 07:40:07;;;;;;;1.00;0.90;;;;;;;24.67;58.25;98787.00;5113830;28;20044;-66
2023/07/02 07:42:36;;;;;;;0.70;0.70;;;;;;;24.63;58.60;98795.16;5113939;28;20401;-67
2023/07/02 07:45:06;;;;;;;1.15;0.80;;;;;;;24.67;58.63;98793.97;5113792;28;20520;-68
2023/07/02 07:47:35;;;;;;;0.47;0.47;;;;;;;24.59;58.32;98796.31;5113735;28;20055;-67
2023/07/02 07:50:09;;;;;;;1.20;0.65;;;;;;;24.51;58.73;98799.47;5114402;28;20513;-67
2023/07/02 07:52:41;;;;;;;0.93;0.93;;;;;;;24.42;59.62;98804.53;5113782;28;20054;-64
2023/07/02 07:55:10;;;;;;;1.00;0.75;;;;;;;24.28;59.25;98802.06;5114148;28;20032;-67
2023/07/02 07:57:39;;;;;;;1.90;1.50;;;;;;;24.28;59.92;98800.25;5113922;28;20047;-68
2023/07/02 08:00:10;;;;;;;2.05;0.85;;;;;;;24.50;59.89;98805.63;5113736;28;20565;-68
2023/07/02 08:02:46;;;;;;;0.75;0.70;;;;;;;24.52;59.72;98808.16;5113645;28;20044;-67
2023/07/02 08:05:15;;;;;;;;;;;;;;;24.56;59.94;98807.81;5103607;28;20048;-68
2023/07/02 08:07:46;;;;;;;1.00;0.90;;;;;;;24.63;59.35;98802.97;5108231;28;19981;-68
2023/07/02 08:10:15;;;;;;;0.80;0.75;;;;;;;24.71;59.12;98808.50;5117389;28;20059;-68
2023/07/02 08:12:43;;;;;;;0.65;0.65;;;;;;;24.78;59.37;98814.97;5116595;28;20043;-67
2023/07/02 08:15:12;;;;;;;;;;;;;;;24.70;58.09;98821.63;5117976;28;20043;-71
2023/07/02 08:17:41;;;;;;;0.57;0.57;;;;;;;24.60;57.96;98826.69;5117495;28;20003;-68
2023/07/02 08:20:11;;;;;;;0.32;0.32;;;;;;;24.57;58.30;98832.94;5117748;28;20047;-68
2023/07/02 08:22:41;;;;;;;7.22;1.30;;;;;;;24.54;58.18;98825.38;5117373;28;20046;-69
2023/07/02 08:25:11;;;;;;;0.70;0.70;;;;;;;24.51;58.49;98827.34;5117642;28;20405;-67
2023/07/02 08:27:40;;;;;;;0.40;0.40;;;;;;;24.50;57.91;98836.09;5117184;28;20048;-67
2023/07/02 08:30:09;;;;;;;1.00;0.82;;;;;;;24.43;58.74;98845.31;5117220;28;20036;-68
2023/07/02 08:32:38;;;;;;;0.88;0.82;;;;;;;24.36;58.54;98838.84;5117168;28;20073;-67
2023/07/02 08:35:08;;;;;;;1.13;1.02;;;;;;;24.36;58.69;98838.84;5116961;28;20031;-68
2023/07/02 08:37:36;;;;;;;1.65;1.15;;;;;;;24.43;58.38;98840.09;5117094;28;20048;-68
2023/07/02 08:40:18;;;;;;;0.70;0.70;;;;;;;24.37;57.11;98845.75;5115766;28;20577;-69
2023/07/02 08:42:50;;;;;;;0.70;0.70;;;;;;;24.36;56.68;98844.06;5113440;28;20032;-68
2023/07/02 08:45:26;;;;;;;0.40;0.40;;;;;;;24.40;56.54;98850.75;5100822;28;20052;-68
2023/07/02 08:47:57;;;;;;;0.57;0.52;;;;;;;24.44;57.46;98841.78;5116691;28;20457;-67
2023/07/02 08:50:27;;;;;;;1.30;0.98;;;;;;;24.45;57.06;98843.44;5116669;28;20489;-67
2023/07/02 08:52:56;;;;;;;0.75;0.73;;;;;;;24.48;57.58;98853.66;5116727;28;20473;-67
2023/07/02 08:55:27;;;;;;;0.65;0.65;;;;;;;24.56;58.51;98861.78;5116560;28;20493;-68
2023/07/02 08:58:00;;;;;;;0.73;0.73;;;;;;;24.56;58.43;98856.56;5116886;28;20096;-67
2023/07/02 09:00:30;;;;;;;0.55;0.55;;;;;;;24.78;58.67;98867.19;5116508;28;20079;-68
2023/07/02 09:03:00;;;;;;;1.73;1.33;;;;;;;25.04;57.96;98853.06;5115373;28;20069;-67
2023/07/02 09:05:30;;;;;;;0.50;0.50;;;;;;;25.42;57.38;98849.41;5116316;27;20558;-67
2023/07/02 09:07:59;;;;;;;0.50;0.50;;;;;;;25.50;56.96;98849.72;5115859;28;20044;-69
2023/07/02 09:10:31;;;;;;;0.95;0.63;;;;;;;25.56;56.85;98851.84;5116376;28;20424;-67
2023/07/02 09:13:07;;;;;;;0.60;0.60;;;;;;;25.59;56.91;98855.06;5116307;28;20044;-68
2023/07/02 09:15:38;;;;;;;0.52;0.52;;;;;;;25.46;57.46;98848.28;5110054;28;20047;-69
2023/07/02 09:18:18;;;;;;;0.63;0.60;;;;;;;25.30;57.87;98853.75;5095747;28;20040;-67
2023/07/02 09:20:47;;;;;;;0.50;0.50;;;;;;;25.17;58.34;98848.59;5095230;28;20043;-68
2023/07/02 09:23:16;;;;;;;0.57;0.57;;;;;;;25.27;57.77;98843.53;5095596;28;20044;-70
2023/07/02 09:25:47;;;;;;;0.60;0.60;;;;;;;25.57;58.21;98850.91;5095475;28;20051;-68
2023/07/02 09:28:18;;;;;;;0.40;0.40;;;;;;;25.90;58.33;98843.13;5095478;28;20048;-68
2023/07/02 09:30:52;;;;;;;0.40;0.40;;;;;;;26.16;57.98;98855.06;5094870;28;20060;-69
2023/07/02 09:33:21;;;;;;;0.55;0.55;;;;;;;26.24;56.79;98836.97;5095779;28;20402;-68
2023/07/02 09:35:51;;;;;;;0.60;0.60;;;;;;;26.39;56.58;98846.25;5095478;28;20548;-68
2023/07/02 09:38:21;;;;;;;0.40;0.40;;;;;;;26.85;57.17;98838.19;5095366;28;20067;-68
2023/07/02 09:40:53;;;;;;;0.60;0.60;;;;;;;27.02;55.56;98839.44;5095227;28;20044;-68
2023/07/02 09:43:22;;;;;;;0.40;0.40;;;;;;;27.16;54.20;98836.56;5095787;28;20071;-69
2023/07/02 09:45:53;;;;;;;0.65;0.65;;;;;;;26.99;53.31;98839.72;5095182;28;20101;-68
2023/07/02 09:48:26;;;;;;;0.50;0.50;;;;;;;26.92;53.05;98833.31;5095778;28;20076;-68
2023/07/02 09:50:56;;;;;;;0.30;0.30;;;;;;;26.87;53.46;98830.25;5095009;28;20520;-68
2023/07/02 09:53:28;;;;;;;0.60;0.60;;;;;;;27.14;54.47;98830.59;5095627;28;20147;-68
2023/07/02 09:55:58;;;;;;;0.40;0.40;;;;;;;27.19;54.15;98847.59;5095356;28;20051;-68
2023/07/02 09:58:27;;;;;;;0.50;0.50;;;;;;;27.00;54.11;98851.84;5095275;28;20052;-68
2023/07/02 10:00:56;;;;;;;0.30;0.30;;;;;;;26.77;53.91;98851.09;5094549;28;20040;-67
2023/07/02 10:03:32;;;;;;;0.50;0.50;;;;;;;26.61;53.90;98848.81;5095205;28;20509;-68
2023/07/02 10:06:05;;;;;;;0.70;0.70;;;;;;;26.49;55.38;98851.59;5094752;28;20132;-68
2023/07/02 10:08:34;;;;;;;0.40;0.40;;;;;;;26.45;55.37;98851.00;5095062;28;20048;-68
2023/07/02 10:11:12;;;;;;;0.43;0.43;;;;;;;26.43;54.65;98858.16;5094688;28;20498;-69
2023/07/02 10:13:42;;;;;;;0.30;0.30;;;;;;;26.32;54.88;98850.28;5094646;28;20048;-68
2023/07/02 10:16:11;;;;;;;;;;;;;;;26.32;55.14;98850.28;5095141;28;20024;-68
2023/07/02 10:18:40;;;;;;;0.45;0.45;;;;;;;26.28;54.85;98848.03;5092944;28;19967;-68
2023/07/02 10:21:16;;;;;;;0.40;0.40;;;;;;;26.26;54.66;98840.31;5094447;28;20123;-68
2023/07/02 10:23:45;;;;;;;0.40;0.40;;;;;;;26.10;55.25;98845.03;5094554;28;20060;-67
2023/07/02 10:26:20;;;;;;;0.85;0.85;;;;;;;26.04;55.43;98840.28;5094210;28;20118;-69
2023/07/02 10:29:02;;;;;;;0.52;0.52;;;;;;;26.08;56.43;98835.66;5093365;28;20440;-67
2023/07/02 10:31:31;;;;;;;0.40;0.40;;;;;;;26.00;55.29;98838.84;5093438;28;20101;-68
2023/07/02 10:34:00;;;;;;;0.50;0.50;;;;;;;25.99;55.16;98838.97;5094273;28;20054;-66
2023/07/02 10:36:29;;;;;;;0.50;0.50;;;;;;;25.93;55.91;98842.88;5094275;28;20036;-69
2023/07/02 10:39:05;;;;;;;0.40;0.40;;;;;;;25.89;56.24;98850.13;5094288;28;20040;-69
2023/07/02 10:41:36;;;;;;;0.45;0.45;;;;;;;26.06;55.51;98848.03;5094252;28;20461;-69
2023/07/02 10:44:09;;;;;;;0.40;0.40;;;;;;;26.48;55.55;98840.28;5094062;28;20052;-69
2023/07/02 10:46:45;;;;;;;0.73;0.73;;;;;;;26.93;54.95;98829.72;5093962;28;20402;-70
2023/07/02 10:49:14;;;;;;;3.20;0.60;;;;;;;27.27;53.83;98844.38;5094039;28;20093;-70
2023/07/02 10:51:43;;;;;;;;;;;;;;;27.50;53.11;98845.94;5094164;28;20048;-68
2023/07/02 10:54:12;;;;;;;0.83;0.80;;;;;;;27.59;52.69;98850.44;5093869;28;19920;-67
2023/07/02 10:56:42;;;;;;;0.38;0.38;;;;;;;27.47;52.71;98846.22;5092686;28;20119;-68
2023/07/02 10:59:11;;;;;;;0.55;0.55;;;;;;;27.48;53.15;98836.53;5093637;28;20049;-67
2023/07/02 11:01:40;;;;;;;0.70;0.70;;;;;;;27.61;52.73;98838.03;5093179;28;20075;-69
2023/07/02 11:04:10;;;;;;;0.85;0.63;;;;;;;27.70;51.61;98832.00;5094114;28;20238;-69
2023/07/02 11:06:40;;;;;;;0.47;0.47;;;;;;;27.83;50.90;98831.78;5093595;28;20043;-68
2023/07/02 11:09:17;;;;;;;0.57;0.55;;;;;;;27.92;51.76;98826.59;5093201;28;20448;-67
2023/07/02 11:11:59;;;;;;;0.63;0.63;;;;;;;27.93;51.36;98823.00;5103600;28;20051;-69
2023/07/02 11:14:32;;;;;;;1.00;0.90;;;;;;;27.78;50.70;98821.69;5100066;28;20051;-70
2023/07/02 11:17:04;;;;;;;0.85;0.82;;;;;;;27.70;51.38;98815.41;5102960;27;20051;-68
2023/07/02 11:19:34;;;;;;;0.57;0.57;;;;;;;27.57;51.41;98812.19;5103977;28;20113;-68
2023/07/02 11:22:03;;;;;;;0.75;0.73;;;;;;;27.50;51.81;98809.22;5105945;28;20031;-67
2023/07/02 11:24:34;;;;;;;0.85;0.80;;;;;;;27.20;51.51;98811.75;5104473;28;20101;-67
2023/07/02 11:27:06;;;;;;;0.40;0.40;;;;;;;27.20;51.53;98806.50;5095849;28;20062;-67
2023/07/02 11:29:36;;;;;;;0.32;0.32;;;;;;;27.17;51.48;98806.75;5104610;28;20142;-65
2023/07/02 11:32:10;;;;;;;0.50;0.50;;;;;;;27.09;52.02;98804.75;5103500;28;20063;-66
2023/07/02 11:34:39;;;;;;;0.68;0.60;;;;;;;26.96;51.92;98803.28;5102347;28;20047;-67
2023/07/02 11:37:08;;;;;;;0.38;0.38;;;;;;;26.98;52.92;98809.22;5104182;28;20070;-69
2023/07/02 11:39:37;;;;;;;0.40;0.40;;;;;;;27.11;52.28;98812.53;5100705;28;20360;-69
2023/07/02 11:42:08;;;;;;;0.88;0.80;;;;;;;27.39;51.25;98806.69;5102928;28;20036;-69
2023/07/02 11:44:36;;;;;;;0.50;0.50;;;;;;;27.39;49.92;98800.59;5106149;28;20036;-69
2023/07/02 11:47:06;;;;;;;0.50;0.50;;;;;;;27.60;49.74;98799.63;5107400;28;20036;-69